Time;durP1;ratioP1;P1;durP2;ratioP2;P2;SDS_P1;SDS_P2;PMS_P1;PMS_P2;Temp;Humidity;BMP_temperature;BMP_pressure;BME280_temperature;BME280_humidity;BME280_pressure;Samples;Min_cycle;Max_cycle;Signal;HPM_P1;HPM_P2
2023/03/29 00:01:11;;;;;;;1.67;1.40;;;;;;;4.78;56.40;99743.28;5107613;28;20203;-47
2023/03/29 00:04:18;;;;;;;1.50;1.40;;;;;;;4.74;56.13;99747.56;5109887;28;20235;-48
2023/03/29 00:13:24;;;;;;;2.50;1.73;;;;;;;4.68;56.86;99747.56;5107953;28;20691;-46
2023/03/29 00:28:34;;;;;;;2.13;1.93;;;;;;;4.56;57.20;99765.59;5107359;28;20286;-48
2023/03/29 00:34:53;;;;;;;2.00;1.90;;;;;;;4.45;57.73;99772.44;5110387;28;20607;-47
2023/03/29 00:37:36;;;;;;;2.13;2.03;;;;;;;4.42;57.38;99772.44;5109851;28;20630;-47
2023/03/29 00:40:39;;;;;;;2.10;1.97;;;;;;;4.42;57.53;99774.16;5108287;28;20199;-47
2023/03/29 00:43:41;;;;;;;;;;;;;;;;;;;;;
2023/03/29 00:46:53;;;;;;;3.70;2.10;;;;;;;4.50;57.88;99778.44;5105529;28;20205;-46
2023/03/29 00:50:08;;;;;;;;;;;;;;;;;;;;;
2023/03/29 00:52:38;;;;;;;3.17;2.30;;;;;;;4.38;58.42;99779.31;5107877;28;20187;-47
2023/03/29 00:55:29;;;;;;;2.53;2.33;;;;;;;4.51;57.79;99795.59;5119571;27;20548;-47
2023/03/29 00:58:52;;;;;;;2.33;2.00;;;;;;;4.56;57.46;99796.44;5102220;28;20230;-47
2023/03/29 01:11:26;;;;;;;2.20;2.03;;;;;;;4.59;57.26;99799.00;5109532;28;20201;-46
2023/03/29 01:20:54;;;;;;;2.47;2.27;;;;;;;4.42;57.43;99803.28;5109122;28;20588;-47
2023/03/29 01:27:21;;;;;;;2.50;2.30;;;;;;;4.33;57.45;99801.56;5107977;28;20673;-46
2023/03/29 01:33:46;;;;;;;2.60;2.40;;;;;;;4.30;57.77;99798.13;5107275;28;20199;-47
2023/03/29 01:39:47;;;;;;;2.77;2.57;;;;;;;4.35;57.76;99794.72;5105498;28;20206;-48
2023/03/29 01:43:05;;;;;;;2.20;2.10;;;;;;;4.26;57.71;99805.00;5109021;28;20221;-47
2023/03/29 01:46:19;;;;;;;3.00;2.80;;;;;;;4.14;57.61;99794.69;5108740;28;20206;-47
2023/03/29 01:52:26;;;;;;;4.50;2.20;;;;;;;4.07;57.93;99794.66;5106231;28;20588;-46
2023/03/29 01:55:31;;;;;;;2.50;2.30;;;;;;;4.05;57.50;99789.53;5108422;28;20205;-47
2023/03/29 02:01:41;;;;;;;3.27;2.80;;;;;;;4.00;57.54;99812.63;5112479;28;20205;-48
2023/03/29 02:04:44;;;;;;;2.67;2.47;;;;;;;4.06;56.50;99822.09;5112191;28;20477;-46
2023/03/29 02:07:52;;;;;;;2.77;2.50;;;;;;;4.03;56.03;99806.66;5112656;28;20281;-46
2023/03/29 02:10:51;;;;;;;3.17;2.87;;;;;;;4.09;55.87;99816.06;5112619;28;20525;-47
2023/03/29 02:20:08;;;;;;;3.10;2.90;;;;;;;3.96;57.20;99830.59;5110753;28;20199;-46
2023/03/29 02:23:03;;;;;;;2.83;2.63;;;;;;;3.84;57.55;99825.41;5110088;28;20229;-46
2023/03/29 02:25:40;;;;;;;3.07;2.87;;;;;;;3.85;58.25;99840.84;5112591;28;20198;-48
2023/03/29 02:28:42;;;;;;;3.43;2.77;;;;;;;3.85;57.76;99848.53;5112420;28;20725;-47
2023/03/29 02:31:46;;;;;;;3.53;3.23;;;;;;;3.88;57.94;99852.81;5111280;28;20281;-46
2023/03/29 02:35:07;;;;;;;4.17;3.00;;;;;;;3.94;57.55;99858.00;5112485;28;20194;-48
2023/03/29 02:38:14;;;;;;;3.50;2.93;;;;;;;3.95;57.04;99862.28;5111160;28;20293;-47
2023/03/29 02:41:04;;;;;;;3.70;2.80;;;;;;;3.94;56.92;99874.28;5110047;28;20201;-47
2023/03/29 02:43:59;;;;;;;2.70;2.50;;;;;;;3.95;56.32;99859.72;5111163;28;20223;-47
2023/03/29 02:47:05;;;;;;;2.80;2.60;;;;;;;3.91;56.72;99860.56;5106799;28;20289;-48
2023/03/29 02:50:04;;;;;;;6.20;2.93;;;;;;;4.00;55.68;99865.72;5109429;28;20665;-48
2023/03/29 02:52:50;;;;;;;2.90;2.70;;;;;;;4.00;55.22;99863.16;5110660;28;20271;-48
2023/03/29 02:56:00;;;;;;;3.23;2.93;;;;;;;3.93;55.47;99867.41;5111822;28;20205;-49
2023/03/29 02:58:52;;;;;;;2.87;2.67;;;;;;;3.94;55.51;99858.00;5108919;28;20285;-46
2023/03/29 03:01:59;;;;;;;2.43;2.27;;;;;;;3.93;55.34;99871.69;5111263;28;20285;-48
2023/03/29 03:04:52;;;;;;;4.10;2.60;;;;;;;3.89;55.21;99869.94;5111563;28;20595;-47
2023/03/29 03:07:29;;;;;;;4.07;2.70;;;;;;;3.87;54.72;99869.09;5111226;28;20191;-47
2023/03/29 03:10:07;;;;;;;4.80;2.70;;;;;;;3.81;55.42;99876.78;5111124;28;20722;-46
2023/03/29 03:12:54;;;;;;;3.00;2.80;;;;;;;3.76;55.31;99873.31;5111236;28;20669;-46
2023/03/29 03:15:26;;;;;;;3.07;2.83;;;;;;;3.76;55.87;99879.31;5111437;28;20274;-47
2023/03/29 03:18:07;;;;;;;4.27;2.93;;;;;;;3.75;55.64;99879.31;5111040;28;20598;-46
2023/03/29 03:20:45;;;;;;;3.33;3.13;;;;;;;3.72;55.56;99879.31;5111263;28;20201;-48
2023/03/29 03:23:23;;;;;;;2.97;2.77;;;;;;;3.63;55.92;99880.97;5110819;28;20257;-47
2023/03/29 03:25:58;;;;;;;3.20;3.00;;;;;;;3.67;56.18;99888.69;5109951;28;20201;-46
2023/03/29 03:28:45;;;;;;;5.70;3.17;;;;;;;3.69;55.53;99892.13;5109538;28;20236;-47
2023/03/29 03:31:33;;;;;;;3.50;3.20;;;;;;;3.61;56.35;99892.09;5111249;28;20234;-46
2023/03/29 03:34:07;;;;;;;3.10;2.90;;;;;;;3.66;55.77;99903.22;5111154;28;20649;-47
2023/03/29 03:36:49;;;;;;;5.03;3.70;;;;;;;3.63;55.73;99898.94;5110592;28;20196;-48
2023/03/29 03:39:34;;;;;;;9.10;3.50;;;;;;;3.65;55.56;99897.22;5110220;28;20198;-49
2023/03/29 03:42:24;;;;;;;3.40;3.20;;;;;;;3.71;55.27;99910.97;5105934;28;20291;-47
2023/03/29 03:44:57;;;;;;;3.97;3.67;;;;;;;3.73;55.92;99909.25;5104466;28;20277;-47
2023/03/29 03:47:37;;;;;;;4.00;3.60;;;;;;;3.81;55.36;99912.72;5105403;28;20186;-47
2023/03/29 03:50:14;;;;;;;4.07;3.77;;;;;;;3.77;55.55;99913.53;5107890;28;20190;-47
2023/03/29 03:52:56;;;;;;;4.00;3.70;;;;;;;3.74;55.11;99914.38;5105048;28;20205;-46
2023/03/29 03:55:51;;;;;;;4.67;3.03;;;;;;;3.75;55.06;99907.53;5103827;28;20584;-47
2023/03/29 03:58:33;;;;;;;5.33;4.00;;;;;;;3.72;55.29;99903.28;5104481;28;20221;-48
2023/03/29 04:01:42;;;;;;;;;;;;;;;;;;;;;
2023/03/29 04:04:22;;;;;;;3.73;3.30;;;;;;;3.66;54.78;99926.34;5109197;28;20220;-47
2023/03/29 04:07:07;;;;;;;3.47;3.17;;;;;;;3.68;54.47;99923.78;5100737;28;20232;-47
2023/03/29 04:10:08;;;;;;;3.33;3.13;;;;;;;3.72;55.24;99928.09;5095850;28;20210;-47
2023/03/29 04:15:48;;;;;;;4.70;3.67;;;;;;;3.68;55.73;99939.19;5089968;28;20203;-47
2023/03/29 04:18:37;;;;;;;4.17;3.87;;;;;;;3.65;55.44;99935.75;5104451;28;20200;-47
2023/03/29 04:21:44;;;;;;;4.00;3.63;;;;;;;3.61;55.79;99939.13;5109413;28;20291;-48
2023/03/29 04:24:47;;;;;;;4.87;3.90;;;;;;;3.63;56.38;99937.44;5107366;28;20275;-46
2023/03/29 04:28:10;;;;;;;4.27;3.90;;;;;;;3.66;56.48;99936.59;5110286;28;20681;-46
2023/03/29 04:30:56;;;;;;;4.37;3.33;;;;;;;3.85;59.85;99947.81;5106883;27;20221;-47
2023/03/29 04:33:41;;;;;;;4.93;3.67;;;;;;;3.89;56.57;99941.84;5108017;28;20239;-47
2023/03/29 04:36:14;;;;;;;3.43;3.23;;;;;;;3.98;55.86;99942.75;5108779;28;20225;-47
2023/03/29 04:39:00;;;;;;;9.70;3.80;;;;;;;4.12;55.18;99955.66;5107431;28;20583;-47
2023/03/29 04:41:36;;;;;;;4.40;4.10;;;;;;;4.11;55.41;99953.06;5109112;28;20256;-46
2023/03/29 04:44:22;;;;;;;4.20;3.90;;;;;;;4.08;55.29;99958.19;5105914;28;20634;-49
2023/03/29 04:46:59;;;;;;;5.30;3.70;;;;;;;4.00;54.95;99953.03;5108817;28;20226;-49
2023/03/29 04:49:39;;;;;;;11.63;4.23;;;;;;;4.06;55.08;99963.34;5107382;28;20302;-47
2023/03/29 04:52:13;;;;;;;4.17;3.87;;;;;;;3.99;55.08;99956.44;5108552;28;20768;-49
2023/03/29 04:54:58;;;;;;;4.83;3.90;;;;;;;4.05;54.83;99965.91;5109185;28;20645;-47
2023/03/29 04:57:33;;;;;;;11.53;3.87;;;;;;;4.08;55.04;99959.06;5108925;28;20753;-48
2023/03/29 05:00:01;;;;;;;5.97;4.30;;;;;;;4.08;54.75;99964.19;5086509;28;20771;-47
2023/03/29 05:02:52;;;;;;;6.53;4.10;;;;;;;4.19;54.62;99966.81;5081356;28;20250;-47
2023/03/29 05:05:41;;;;;;;5.67;4.83;;;;;;;4.29;53.88;99977.13;5086930;28;20222;-47
2023/03/29 05:08:45;;;;;;;4.90;3.87;;;;;;;4.44;54.01;99972.91;5047802;28;20257;-48
2023/03/29 05:11:57;;;;;;;7.43;4.23;;;;;;;4.55;53.32;99966.94;5060261;28;20290;-47
2023/03/29 05:20:59;;;;;;;3.87;3.57;;;;;;;7.53;47.17;99972.88;5045138;28;20669;-47
2023/03/29 05:27:20;;;;;;;14.80;3.83;;;;;;;11.69;38.63;99984.63;5046634;28;20254;-47
2023/03/29 05:30:38;;;;;;;;;;;;;;;;;;;;;
2023/03/29 05:36:39;;;;;;;3.57;3.37;;;;;;;14.29;33.57;99990.44;5050910;28;20278;-47
2023/03/29 05:39:36;;;;;;;4.17;3.70;;;;;;;14.95;32.33;100001.91;5052809;28;20287;-48
2023/03/29 05:42:29;;;;;;;4.00;3.70;;;;;;;15.55;31.68;100010.88;5052609;28;20201;-47
2023/03/29 05:48:17;;;;;;;5.43;3.80;;;;;;;15.91;30.30;100009.28;5051273;28;20204;-48
2023/03/29 05:51:17;;;;;;;4.27;3.53;;;;;;;15.41;30.33;100010.53;5052616;28;20204;-48
2023/03/29 05:57:40;;;;;;;6.90;4.00;;;;;;;16.38;29.46;100016.84;5050769;28;20224;-48
2023/03/29 06:00:27;;;;;;;5.53;3.70;;;;;;;16.74;28.95;100017.00;5052514;28;20192;-49
2023/03/29 06:03:31;;;;;;;3.50;3.30;;;;;;;17.42;28.46;100020.75;5052451;28;20283;-48
2023/03/29 06:09:18;;;;;;;5.45;3.22;;;;;;;18.03;27.12;100015.94;5051181;28;20219;-49
2023/03/29 06:15:25;;;;;;;5.03;3.05;;;;;;;18.34;25.60;100027.50;5052424;28;20196;-48
2023/03/29 06:21:51;;;;;;;3.17;2.97;;;;;;;18.25;25.51;100030.59;5051582;28;20250;-48
2023/03/29 06:24:47;;;;;;;4.65;3.70;;;;;;;18.62;24.96;100025.13;5052114;28;20221;-49
2023/03/29 06:27:49;;;;;;;7.25;3.50;;;;;;;18.95;24.27;100037.38;5052383;28;20196;-48
2023/03/29 06:31:13;;;;;;;4.32;2.70;;;;;;;19.66;23.65;100032.50;5052160;28;20200;-49
2023/03/29 06:33:49;;;;;;;4.85;2.55;;;;;;;19.23;23.43;100050.69;5051810;28;20664;-48
2023/03/29 06:39:35;;;;;;;6.03;2.63;;;;;;;19.99;22.60;100051.59;5057272;28;20303;-48
2023/03/29 06:45:21;;;;;;;6.38;2.65;;;;;;;21.37;21.68;100055.38;5061549;28;20247;-48
2023/03/29 06:48:00;;;;;;;7.63;2.88;;;;;;;20.56;21.63;100063.09;5076726;28;20302;-48
2023/03/29 06:50:51;;;;;;;4.35;2.65;;;;;;;20.67;21.56;100059.81;5070935;28;20223;-47
2023/03/29 06:53:59;;;;;;;7.68;3.10;;;;;;;20.98;21.75;100062.25;5067359;28;20219;-47
2023/03/29 06:56:38;;;;;;;3.40;2.47;;;;;;;21.09;21.32;100060.72;5062362;28;20751;-48
2023/03/29 06:59:12;;;;;;;3.80;2.65;;;;;;;20.97;21.25;100072.91;5092677;28;20234;-47
2023/03/29 07:01:46;;;;;;;4.55;2.38;;;;;;;20.99;21.16;100068.38;5105231;28;20275;-48
2023/03/29 07:04:25;;;;;;;3.67;2.88;;;;;;;21.88;20.70;100066.13;5111601;28;20427;-47
2023/03/29 07:07:06;;;;;;;4.57;2.85;;;;;;;21.86;20.60;100058.31;5111431;27;20588;-47
2023/03/29 07:13:21;;;;;;;4.10;3.08;;;;;;;20.95;20.99;100074.78;5109401;28;20648;-49
2023/03/29 07:15:57;;;;;;;5.60;2.30;;;;;;;21.31;20.52;100066.34;5102799;27;20313;-49
2023/03/29 07:18:38;;;;;;;2.53;2.33;;;;;;;22.05;20.23;100073.81;5109493;28;20225;-48
2023/03/29 07:21:17;;;;;;;3.20;2.65;;;;;;;22.45;19.68;100075.44;5109383;28;20303;-49
2023/03/29 07:23:47;;;;;;;3.15;2.60;;;;;;;22.77;19.26;100080.31;5108755;28;20697;-48
2023/03/29 07:26:44;;;;;;;3.60;2.55;;;;;;;21.53;19.46;100071.09;5109553;28;20238;-48
2023/03/29 07:29:31;;;;;;;3.33;2.58;;;;;;;21.78;19.29;100072.97;5101486;28;20612;-49
2023/03/29 07:35:30;;;;;;;2.53;2.33;;;;;;;22.88;18.39;100069.81;5109437;28;20239;-47
2023/03/29 07:38:21;;;;;;;2.58;2.20;;;;;;;22.66;18.72;100080.19;5110964;28;20239;-48
2023/03/29 07:41:09;;;;;;;2.50;2.30;;;;;;;22.45;17.45;100056.06;5110574;27;20670;-48
2023/03/29 07:43:40;;;;;;;1.92;1.83;;;;;;;22.97;17.16;100050.63;5107521;28;20271;-48
2023/03/29 07:46:25;;;;;;;4.13;2.50;;;;;;;23.19;17.11;100071.13;5109655;28;20226;-48
2023/03/29 07:49:04;;;;;;;4.72;2.50;;;;;;;22.78;17.21;100055.56;5103150;28;20289;-47
2023/03/29 07:51:42;;;;;;;2.88;2.05;;;;;;;22.23;17.39;100056.72;5105467;28;20685;-47
2023/03/29 07:54:37;;;;;;;12.07;2.13;;;;;;;22.41;17.32;100066.00;5109716;28;20780;-50
2023/03/29 08:00:29;;;;;;;1.80;1.70;;;;;;;21.93;17.22;100053.44;5109792;28;20287;-47
2023/03/29 08:06:25;;;;;;;2.72;2.53;;;;;;;22.35;17.19;100044.41;5100427;28;20234;-48
2023/03/29 08:09:20;;;;;;;3.40;1.90;;;;;;;22.42;17.07;100054.50;5109682;28;20277;-47
2023/03/29 08:12:16;;;;;;;2.20;2.10;;;;;;;21.93;17.01;100058.72;5110228;28;20256;-48
2023/03/29 08:15:21;;;;;;;3.40;2.40;;;;;;;21.77;17.55;100050.16;5108776;28;20190;-47
2023/03/29 08:21:11;;;;;;;3.03;1.83;;;;;;;20.57;18.60;100035.78;5109017;28;20209;-47
2023/03/29 08:24:04;;;;;;;3.40;1.77;;;;;;;20.03;19.08;100045.22;5109976;28;20575;-49
2023/03/29 08:26:53;;;;;;;2.20;2.10;;;;;;;19.30;19.67;100052.03;5104510;28;20214;-47
2023/03/29 08:29:53;;;;;;;;;;;;;;;;;;;;;
2023/03/29 08:32:43;;;;;;;5.63;2.20;;;;;;;15.41;23.30;100034.94;5104715;28;20272;-49
2023/03/29 08:38:24;;;;;;;3.07;2.77;;;;;;;13.32;24.69;100038.09;5109648;28;20203;-50
2023/03/29 08:41:35;;;;;;;2.00;1.90;;;;;;;13.25;24.41;100036.59;5109985;28;20194;-49
2023/03/29 08:44:45;;;;;;;2.30;2.10;;;;;;;12.85;25.13;100018.72;5109378;28;20241;-49
2023/03/29 08:50:52;;;;;;;4.37;2.37;;;;;;;12.34;26.27;100016.72;5107499;28;20601;-48
2023/03/29 09:00:03;;;;;;;4.13;2.58;;;;;;;11.74;27.55;100012.22;5103297;28;20437;-47
2023/03/29 09:09:19;;;;;;;3.73;2.67;;;;;;;12.44;27.84;100038.97;5083903;28;20211;-48
2023/03/29 09:22:41;;;;;;;;;;;;;;;;;;;;;
2023/03/29 09:25:52;;;;;;;2.10;1.97;;;;;;;11.88;27.37;100033.56;5102144;28;20223;-49
2023/03/29 09:34:52;;;;;;;1.80;1.70;;;;;;;12.51;26.04;100019.72;5087964;28;20225;-50
2023/03/29 09:37:47;;;;;;;2.10;1.60;;;;;;;12.62;26.29;100022.00;5088286;28;20226;-53
2023/03/29 09:40:29;;;;;;;2.73;2.43;;;;;;;12.73;26.48;100022.53;5088677;28;20306;-51
2023/03/29 09:43:06;;;;;;;2.00;1.90;;;;;;;12.99;25.53;100009.56;5086754;28;20636;-50
2023/03/29 09:45:49;;;;;;;3.00;1.80;;;;;;;12.58;25.81;100018.63;5088450;28;20294;-51
2023/03/29 09:52:06;;;;;;;4.10;1.80;;;;;;;12.21;25.52;100008.38;5106873;28;20218;-50
2023/03/29 09:54:47;;;;;;;2.87;1.60;;;;;;;12.29;25.78;100016.84;5102953;28;20214;-48
2023/03/29 09:57:22;;;;;;;1.60;1.47;;;;;;;12.20;26.01;100008.41;5104856;28;20218;-49
2023/03/29 10:00:05;;;;;;;3.53;2.10;;;;;;;12.14;26.01;100011.22;5106583;28;20236;-48
2023/03/29 10:02:40;;;;;;;4.63;2.30;;;;;;;11.87;26.12;99991.97;5102440;28;20227;-48
2023/03/29 10:05:31;;;;;;;1.77;1.67;;;;;;;12.14;25.54;100016.41;5108065;28;20244;-49
2023/03/29 10:08:21;;;;;;;2.40;1.60;;;;;;;11.95;25.63;99990.03;5104705;28;20222;-50
2023/03/29 10:23:39;;;;;;;8.43;2.10;;;;;;;11.91;26.38;99970.19;5092086;28;20203;-47
2023/03/29 10:26:56;;;;;;;3.90;2.57;;;;;;;12.34;26.37;99956.84;5100694;28;20794;-48
2023/03/29 10:29:47;;;;;;;3.00;1.90;;;;;;;12.54;26.02;99958.84;5091329;28;20203;-48
2023/03/29 10:32:47;;;;;;;2.70;1.70;;;;;;;12.58;25.53;99976.94;5091689;28;20234;-47
2023/03/29 10:35:55;;;;;;;2.60;1.80;;;;;;;12.30;26.08;99944.84;5091684;28;20191;-47
2023/03/29 10:38:40;;;;;;;3.17;2.47;;;;;;;12.25;26.29;99916.31;5095239;28;20222;-47
2023/03/29 10:41:37;;;;;;;6.60;3.27;;;;;;;12.19;26.31;99952.09;5091390;28;20211;-47
2023/03/29 10:44:55;;;;;;;5.30;1.83;;;;;;;12.11;26.37;99944.47;5092079;28;20238;-48
2023/03/29 10:47:26;;;;;;;1.77;1.53;;;;;;;12.18;26.66;99940.81;5103534;28;20330;-48
2023/03/29 10:50:12;;;;;;;5.60;2.30;;;;;;;12.26;26.09;99936.25;5104384;28;20658;-48
2023/03/29 10:52:43;;;;;;;1.63;1.53;;;;;;;12.09;23.33;99932.41;5104844;28;20201;-47
2023/03/29 10:55:49;;;;;;;2.20;2.03;;;;;;;12.24;24.41;99940.63;5110795;28;20285;-48
2023/03/29 10:59:07;;;;;;;3.53;1.60;;;;;;;12.26;25.19;99928.44;5103491;28;20190;-47
2023/03/29 11:02:14;;;;;;;3.10;1.70;;;;;;;12.29;25.23;99927.50;5071391;28;20727;-48
2023/03/29 11:05:05;;;;;;;1.80;1.50;;;;;;;12.26;25.24;99910.22;5070118;28;20195;-48
2023/03/29 11:08:07;;;;;;;8.77;2.77;;;;;;;12.32;25.35;99912.63;5069637;28;20230;-48
2023/03/29 11:11:10;;;;;;;2.30;2.10;;;;;;;12.18;24.92;99891.38;5069642;28;20278;-48
2023/03/29 11:13:56;;;;;;;8.13;1.90;;;;;;;12.26;23.68;99912.81;5067298;28;20290;-48
2023/03/29 11:16:47;;;;;;;3.60;2.57;;;;;;;12.18;23.28;99894.00;5068077;28;20192;-47
2023/03/29 11:19:46;;;;;;;2.17;2.07;;;;;;;12.12;24.10;99886.34;5066848;28;20199;-48
2023/03/29 11:22:40;;;;;;;2.43;2.23;;;;;;;12.11;24.37;99876.81;5069563;28;20196;-49
2023/03/29 11:25:29;;;;;;;1.90;1.80;;;;;;;12.31;24.99;99878.84;5068397;28;20219;-47
2023/03/29 11:28:18;;;;;;;6.27;2.10;;;;;;;12.44;25.24;99881.91;5066990;28;20679;-49
2023/03/29 11:31:15;;;;;;;6.07;2.03;;;;;;;12.43;25.52;99854.19;5068002;28;20668;-48
2023/03/29 11:34:10;;;;;;;1.57;1.40;;;;;;;12.52;25.02;99869.53;5067484;28;20192;-48
2023/03/29 11:36:58;;;;;;;1.50;1.40;;;;;;;12.53;24.27;99858.19;5067260;28;20195;-47
2023/03/29 11:39:56;;;;;;;1.60;1.50;;;;;;;12.59;23.88;99873.66;5067739;28;20598;-48
2023/03/29 11:42:38;;;;;;;1.90;1.80;;;;;;;12.54;24.00;99857.31;5067634;28;20198;-47
2023/03/29 11:45:28;;;;;;;6.53;2.43;;;;;;;12.38;23.76;99874.31;5067661;28;20735;-47
2023/03/29 11:48:08;;;;;;;4.33;2.70;;;;;;;12.27;23.72;99866.84;5066006;28;20265;-47
2023/03/29 11:50:54;;;;;;;5.10;1.73;;;;;;;12.27;24.15;99862.47;5066614;28;20188;-47
2023/03/29 11:53:47;;;;;;;2.33;1.97;;;;;;;12.16;24.19;99848.94;5066875;28;20282;-47
2023/03/29 11:56:34;;;;;;;1.97;1.67;;;;;;;12.14;24.29;99855.94;5069302;28;20231;-47
2023/03/29 11:59:23;;;;;;;1.67;1.50;;;;;;;12.09;23.94;99831.78;5077486;28;20218;-47
2023/03/29 12:02:22;;;;;;;1.40;1.30;;;;;;;12.11;24.26;99839.53;5105673;28;20286;-50
2023/03/29 12:05:11;;;;;;;3.20;1.70;;;;;;;12.23;24.13;99834.81;5105594;28;20243;-50
2023/03/29 12:08:03;;;;;;;2.50;1.63;;;;;;;12.33;23.79;99825.84;5104288;28;20248;-48
2023/03/29 12:10:43;;;;;;;3.77;1.73;;;;;;;12.46;23.90;99809.84;5105329;28;20285;-49
2023/03/29 12:13:38;;;;;;;2.73;1.83;;;;;;;12.60;23.66;99820.66;5109230;28;20206;-49
2023/03/29 12:16:40;;;;;;;3.00;1.50;;;;;;;12.50;24.08;99807.09;5105416;28;20191;-50
2023/03/29 12:19:33;;;;;;;1.73;1.63;;;;;;;12.61;24.12;99818.03;5105520;28;20684;-49
2023/03/29 12:22:15;;;;;;;2.67;1.57;;;;;;;12.56;23.81;99819.91;5103963;28;20291;-49
2023/03/29 12:25:02;;;;;;;1.87;1.77;;;;;;;12.53;23.55;99812.19;5104571;28;20213;-49
2023/03/29 12:27:56;;;;;;;2.07;1.47;;;;;;;12.42;23.22;99809.06;5105510;28;20194;-50
2023/03/29 12:30:50;;;;;;;1.70;1.60;;;;;;;12.42;23.82;99803.00;5104150;28;20194;-49
2023/03/29 12:34:05;;;;;;;1.77;1.40;;;;;;;12.43;23.95;99809.94;5104176;28;20194;-49
2023/03/29 12:37:17;;;;;;;1.43;1.33;;;;;;;12.40;23.84;99812.66;5105685;28;20251;-49
2023/03/29 12:40:09;;;;;;;2.47;1.50;;;;;;;12.32;23.51;99808.50;5108352;28;20194;-48
2023/03/29 12:43:03;;;;;;;2.97;1.53;;;;;;;12.28;23.94;99796.50;5102061;28;20691;-50
2023/03/29 12:45:49;;;;;;;3.67;1.50;;;;;;;12.27;24.27;99793.97;5105190;28;20301;-49
2023/03/29 12:48:33;;;;;;;1.60;1.40;;;;;;;12.24;24.00;99807.06;5102927;28;20197;-47
2023/03/29 12:51:11;;;;;;;1.50;1.40;;;;;;;12.31;23.80;99806.81;5103479;28;20558;-48
2023/03/29 12:53:56;;;;;;;1.83;1.70;;;;;;;12.25;24.23;99801.81;5103117;28;20833;-50
2023/03/29 12:56:44;;;;;;;1.17;1.10;;;;;;;12.28;24.27;99800.88;5108424;28;20226;-49
2023/03/29 13:00:01;;;;;;;2.40;1.63;;;;;;;12.25;23.79;99785.34;5103616;28;20223;-49
2023/03/29 13:03:36;;;;;;;1.50;1.40;;;;;;;12.33;23.60;99805.00;5107339;28;20198;-49
2023/03/29 13:06:40;;;;;;;1.30;1.20;;;;;;;12.34;23.49;99791.09;5109059;28;20214;-50
2023/03/29 13:15:42;;;;;;;1.33;1.20;;;;;;;12.36;24.03;99786.72;5103707;28;20203;-51
2023/03/29 13:18:50;;;;;;;3.37;1.50;;;;;;;12.36;23.63;99799.72;5109613;28;20199;-49
2023/03/29 13:22:15;;;;;;;1.90;1.40;;;;;;;12.42;23.41;99798.66;5109708;28;20191;-52
2023/03/29 13:25:17;;;;;;;5.43;2.10;;;;;;;12.55;24.72;99799.97;5105226;28;20617;-48
2023/03/29 13:28:02;;;;;;;1.40;1.30;;;;;;;12.61;23.70;99798.94;5101802;28;20790;-48
2023/03/29 13:30:56;;;;;;;1.63;1.47;;;;;;;12.59;23.90;99804.19;5102801;28;20222;-48
2023/03/29 13:34:10;;;;;;;1.73;1.63;;;;;;;12.58;23.92;99815.50;5101705;28;20226;-49
2023/03/29 13:37:09;;;;;;;6.73;1.47;;;;;;;12.58;23.93;99804.25;5024912;28;20299;-49
2023/03/29 13:39:53;;;;;;;1.37;1.27;;;;;;;12.54;22.01;99803.47;5107813;28;20240;-50
2023/03/29 13:42:51;;;;;;;2.13;1.50;;;;;;;12.49;21.02;99792.38;5102316;28;20226;-49
2023/03/29 13:45:44;;;;;;;1.50;1.30;;;;;;;12.56;21.22;99806.03;5104812;28;20219;-49
2023/03/29 13:52:12;;;;;;;3.30;2.10;;;;;;;12.60;22.49;99812.84;5107048;28;20202;-48
2023/03/29 13:55:39;;;;;;;4.80;3.57;;;;;;;12.63;21.34;99812.78;5110155;28;20209;-48
2023/03/29 13:58:40;;;;;;;1.60;1.50;;;;;;;12.58;20.49;99815.50;5113181;28;20544;-47
2023/03/29 14:01:56;;;;;;;;;;;;;;;;;;;;;
2023/03/29 14:05:03;;;;;;;3.27;1.57;;;;;;;12.42;20.37;99816.03;5107576;27;20199;-50
2023/03/29 14:07:52;;;;;;;1.80;1.40;;;;;;;12.29;20.70;99813.00;5112823;28;20214;-49
2023/03/29 14:10:52;;;;;;;2.83;1.90;;;;;;;12.30;21.00;99825.91;5100090;28;20274;-54
2023/03/29 14:13:39;;;;;;;1.77;1.57;;;;;;;12.26;20.13;99813.94;5110240;28;20193;-49
2023/03/29 14:16:46;;;;;;;2.30;1.80;;;;;;;12.24;19.91;99820.91;5112769;28;20202;-47
2023/03/29 14:20:10;;;;;;;2.83;1.83;;;;;;;12.21;19.42;99830.56;5112714;28;20194;-48
2023/03/29 14:22:45;;;;;;;2.47;1.50;;;;;;;12.22;19.41;99827.91;5109308;28;20223;-47
2023/03/29 14:25:27;;;;;;;5.33;1.80;;;;;;;12.10;19.46;99814.41;5103459;28;20301;-48
2023/03/29 14:27:57;;;;;;;2.53;1.40;;;;;;;12.06;19.50;99810.22;5106262;28;20226;-47
2023/03/29 14:30:36;;;;;;;1.80;1.30;;;;;;;11.98;19.75;99821.69;5105819;28;20309;-48
2023/03/29 14:33:25;;;;;;;1.10;1.10;;;;;;;11.90;20.09;99820.22;5091061;28;20223;-47
2023/03/29 14:36:00;;;;;;;1.73;1.63;;;;;;;11.88;20.89;99812.47;5100531;28;20242;-46
2023/03/29 14:38:39;;;;;;;3.17;1.97;;;;;;;11.90;21.29;99823.69;5104980;28;20214;-47
2023/03/29 14:41:14;;;;;;;1.47;1.37;;;;;;;11.97;21.33;99827.78;5106264;28;20222;-48
2023/03/29 14:44:05;;;;;;;2.00;1.83;;;;;;;12.00;20.76;99829.47;5111738;28;20218;-48
2023/03/29 14:46:40;;;;;;;2.47;1.60;;;;;;;12.04;21.21;99830.22;5111230;28;20229;-48
2023/03/29 14:49:34;;;;;;;8.83;4.53;;;;;;;12.08;22.42;99824.88;5089833;28;20260;-49
2023/03/29 14:52:08;;;;;;;4.63;3.23;;;;;;;12.17;22.48;99831.56;5091086;28;20245;-48
2023/03/29 14:54:53;;;;;;;4.30;3.83;;;;;;;12.16;21.56;99833.31;5109974;28;20773;-49
2023/03/29 14:57:37;;;;;;;3.37;2.60;;;;;;;12.17;19.76;99834.19;5102290;28;20698;-49
2023/03/29 15:00:29;;;;;;;13.80;7.40;;;;;;;12.10;19.34;99830.88;5106575;28;20302;-50
2023/03/29 15:03:30;;;;;;;6.63;3.87;;;;;;;12.10;19.74;99843.91;5110703;28;20260;-48
2023/03/29 15:06:35;;;;;;;6.10;4.13;;;;;;;12.10;20.38;99841.28;5109659;28;20195;-48
2023/03/29 15:09:38;;;;;;;7.63;4.30;;;;;;;12.11;19.71;99843.00;5111126;28;20194;-49
2023/03/29 15:12:43;;;;;;;6.37;2.50;;;;;;;12.16;19.78;99845.47;5109770;28;20194;-50
2023/03/29 15:15:21;;;;;;;2.60;2.40;;;;;;;12.15;19.65;99842.03;5111498;28;20730;-49
2023/03/29 15:18:37;;;;;;;3.53;1.97;;;;;;;12.08;18.89;99850.88;5111701;28;20226;-48
2023/03/29 15:21:37;;;;;;;5.50;3.20;;;;;;;11.98;19.48;99846.84;5111358;28;20286;-48
2023/03/29 15:24:43;;;;;;;4.63;2.00;;;;;;;11.99;19.13;99851.16;5111025;28;20186;-48
2023/03/29 15:30:33;;;;;;;5.10;1.97;;;;;;;11.87;18.84;99856.72;5110544;28;20587;-48
2023/03/29 15:36:15;;;;;;;1.80;1.70;;;;;;;11.77;20.30;99866.53;5110101;28;20282;-47
2023/03/29 15:38:44;;;;;;;16.97;3.27;;;;;;;11.74;19.86;99871.78;5110160;28;20237;-48
2023/03/29 15:41:17;;;;;;;17.73;3.80;;;;;;;11.70;19.67;99871.94;5111134;28;20580;-47
2023/03/29 15:43:55;;;;;;;14.70;2.77;;;;;;;11.60;19.21;99869.59;5110880;28;20294;-48
2023/03/29 15:46:50;;;;;;;13.87;2.63;;;;;;;11.59;19.76;99883.47;5111026;28;20732;-47
2023/03/29 15:52:36;;;;;;;14.40;5.20;;;;;;;11.55;19.58;99884.44;5107421;28;20210;-47
2023/03/29 15:58:52;;;;;;;27.63;13.37;;;;;;;11.44;20.21;99878.69;5109849;28;20588;-47
2023/03/29 16:07:44;;;;;;;41.53;14.80;;;;;;;11.26;20.87;99894.75;5064949;28;20228;-47
2023/03/29 16:10:35;;;;;;;6.80;4.13;;;;;;;11.30;21.22;99896.38;5067773;28;20624;-47
2023/03/29 16:13:39;;;;;;;10.77;5.17;;;;;;;11.23;21.15;99898.28;5069771;28;20219;-47
2023/03/29 16:16:36;;;;;;;12.70;6.90;;;;;;;11.17;20.86;99900.19;5066758;28;20196;-47
2023/03/29 16:19:36;;;;;;;67.57;32.03;;;;;;;11.09;21.66;99904.72;5069187;28;20250;-47
2023/03/29 16:22:48;;;;;;;12.57;7.73;;;;;;;11.05;21.29;99909.16;5069586;28;20284;-47
2023/03/29 16:28:55;;;;;;;5.20;3.10;;;;;;;11.05;21.21;99910.88;5068908;28;20293;-48
2023/03/29 16:34:50;;;;;;;14.63;9.83;;;;;;;10.93;21.48;99903.38;5067909;28;20199;-47
2023/03/29 16:40:27;;;;;;;5.70;5.10;;;;;;;10.83;22.23;99911.41;5067924;28;20211;-48
2023/03/29 16:46:36;;;;;;;13.03;8.60;;;;;;;10.74;22.93;99915.94;5064776;28;20227;-47
2023/03/29 16:49:35;;;;;;;14.63;8.67;;;;;;;10.66;22.37;99918.72;5068536;28;20191;-47
2023/03/29 16:52:11;;;;;;;87.13;35.33;;;;;;;10.71;22.71;99927.25;5062957;28;20254;-47
2023/03/29 16:54:42;;;;;;;91.55;35.45;;;;;;;10.69;22.76;99929.03;5058290;28;20093;-52
2023/03/29 16:57:16;;;;;;;51.83;24.07;;;;;;;10.62;22.21;99936.97;5068909;28;20199;-49
2023/03/29 17:00:01;;;;;;;14.47;9.53;;;;;;;10.60;22.98;99934.44;5082955;28;20237;-48
2023/03/29 17:02:35;;;;;;;32.70;13.73;;;;;;;10.54;22.49;99939.75;5108505;28;20308;-49
2023/03/29 17:05:11;;;;;;;54.20;23.27;;;;;;;10.54;23.00;99945.78;5105602;28;20286;-48